createdAt,value
2018-05-12T00:00:59.459Z,10.80
2018-05-12T00:03:27.198Z,10.80
2018-05-12T00:05:54.780Z,10.80
2018-05-12T00:08:22.343Z,10.80
2018-05-12T00:10:49.991Z,10.70
2018-05-12T00:13:17.562Z,10.60
2018-05-12T00:15:45.185Z,10.50
2018-05-12T00:18:12.748Z,10.50
2018-05-12T00:20:40.321Z,10.40
2018-05-12T00:23:07.946Z,10.30
2018-05-12T00:25:35.538Z,10.20
2018-05-12T00:28:03.157Z,10.20
2018-05-12T00:30:31.570Z,10.10
2018-05-12T00:32:59.980Z,10.10
2018-05-12T00:35:27.585Z,10.10
2018-05-12T00:37:55.946Z,10.00
2018-05-12T00:40:23.594Z,10.00
2018-05-12T00:42:51.234Z,10.00
2018-05-12T00:45:18.838Z,10.00
2018-05-12T00:47:47.257Z,10.00
2018-05-12T00:50:14.861Z,9.90
2018-05-12T00:52:42.423Z,9.90
2018-05-12T00:55:10.037Z,9.90
2018-05-12T00:57:37.640Z,10.00
2018-05-12T01:00:05.242Z,10.00
2018-05-12T01:02:32.853Z,10.00
2018-05-12T01:05:00.473Z,10.00
2018-05-12T01:07:28.052Z,10.00
2018-05-12T01:09:55.641Z,9.90
2018-05-12T01:12:23.264Z,9.80
2018-05-12T01:14:50.882Z,9.80
2018-05-12T01:17:19.246Z,9.80
2018-05-12T01:19:47.570Z,9.70
2018-05-12T01:22:15.153Z,9.70
2018-05-12T01:24:42.728Z,9.70
2018-05-12T01:27:10.325Z,9.70
2018-05-12T01:29:37.901Z,9.70
2018-05-12T01:32:05.454Z,9.70
2018-05-12T01:34:33.029Z,9.70
2018-05-12T01:37:00.649Z,9.70
2018-05-12T01:39:29.022Z,9.60
2018-05-12T01:41:57.385Z,9.60
2018-05-12T01:44:25.001Z,9.60
2018-05-12T01:46:52.590Z,9.60
2018-05-12T01:49:20.195Z,9.60
2018-05-12T01:51:47.868Z,9.60
2018-05-12T01:54:15.438Z,9.60
2018-05-12T01:56:43.030Z,9.60
2018-05-12T01:59:10.650Z,9.60
2018-05-12T02:01:38.228Z,9.60
2018-05-12T02:04:05.846Z,9.60
2018-05-12T02:06:34.230Z,9.60
2018-05-12T02:09:02.619Z,9.60
2018-05-12T02:11:31.001Z,9.60
2018-05-12T02:13:59.332Z,9.60
2018-05-12T02:16:26.905Z,9.60
2018-05-12T02:18:54.528Z,9.50
2018-05-12T02:21:22.101Z,9.50
2018-05-12T02:23:49.737Z,9.50
2018-05-12T02:26:17.292Z,9.50
2018-05-12T02:28:44.917Z,9.50
2018-05-12T02:31:13.270Z,9.50
2018-05-12T02:33:40.875Z,9.40
2018-05-12T02:36:08.471Z,9.40
2018-05-12T02:38:36.122Z,9.30
2018-05-12T02:41:03.756Z,9.30
2018-05-12T02:43:32.164Z,9.30
2018-05-12T02:46:03.576Z,9.30
2018-05-12T02:48:31.927Z,9.40
2018-05-12T02:50:59.531Z,9.40
2018-05-12T02:53:27.112Z,9.40
2018-05-12T02:55:54.739Z,9.40
2018-05-12T02:58:23.100Z,9.40
2018-05-12T03:00:50.665Z,9.40
2018-05-12T03:03:18.985Z,9.40
2018-05-12T03:05:46.607Z,9.40
2018-05-12T03:08:14.977Z,9.40
2018-05-12T03:10:42.603Z,9.30
2018-05-12T03:13:10.287Z,9.30
2018-05-12T03:15:38.539Z,9.20
2018-05-12T03:18:06.155Z,9.20
2018-05-12T03:20:34.567Z,9.20
2018-05-12T03:23:02.186Z,9.20
2018-05-12T03:25:30.529Z,9.10
2018-05-12T03:27:58.152Z,9.10
2018-05-12T03:30:25.751Z,9.10
2018-05-12T03:32:53.384Z,9.10
2018-05-12T03:35:20.985Z,9.00
2018-05-12T03:37:48.557Z,9.00
2018-05-12T03:40:16.141Z,8.90
2018-05-12T03:42:43.708Z,8.90
2018-05-12T03:45:11.297Z,8.90
2018-05-12T03:47:38.891Z,8.90
2018-05-12T03:50:06.438Z,8.90
2018-05-12T03:52:34.058Z,8.90
2018-05-12T03:55:01.679Z,8.90
2018-05-12T03:57:29.273Z,9.00
2018-05-12T03:59:56.927Z,9.00
2018-05-12T04:02:25.290Z,9.10
2018-05-12T04:08:08.314Z,9.10
2018-05-12T04:13:37.372Z,9.20
2018-05-12T04:16:04.910Z,9.20
2018-05-12T04:18:33.301Z,9.50
2018-05-12T04:24:06.836Z,9.60
2018-05-12T04:26:34.444Z,9.90
2018-05-12T04:29:02.094Z,10.10
2018-05-12T04:31:29.663Z,10.30
2018-05-12T04:33:57.523Z,10.50
2018-05-12T04:36:25.086Z,10.60
2018-05-12T04:38:52.721Z,10.90
2018-05-12T04:41:20.305Z,11.00
2018-05-12T04:43:48.701Z,11.10
2018-05-12T04:46:17.065Z,11.20
2018-05-12T04:48:44.637Z,11.20
2018-05-12T04:51:12.193Z,11.30
2018-05-12T04:53:39.821Z,11.40
2018-05-12T04:56:07.427Z,11.40
2018-05-12T04:58:35.783Z,11.50
2018-05-12T05:01:03.385Z,11.50
2018-05-12T05:09:46.571Z,11.50
2018-05-12T05:12:14.944Z,11.60
2018-05-12T05:17:23.146Z,11.60
2018-05-12T05:19:50.690Z,11.60
2018-05-12T05:22:18.984Z,11.90
2018-05-12T05:24:46.533Z,11.90
2018-05-12T05:27:14.827Z,12.20
2018-05-12T05:29:42.365Z,12.20
2018-05-12T05:32:10.683Z,12.40
2018-05-12T05:34:38.207Z,12.40
2018-05-12T05:37:05.766Z,12.50
2018-05-12T05:39:34.079Z,12.70
2018-05-12T05:42:25.769Z,12.70
2018-05-12T05:48:03.918Z,13.00
2018-05-12T05:50:33.421Z,13.20
2018-05-12T05:53:01.008Z,13.30
2018-05-12T05:55:28.602Z,13.30
2018-05-12T06:01:08.608Z,13.60
2018-05-12T06:03:36.186Z,13.80
2018-05-12T06:06:27.142Z,13.80
2018-05-12T06:08:54.762Z,13.90
2018-05-12T06:11:22.395Z,14.00
2018-05-12T06:16:43.983Z,14.00
2018-05-12T06:19:11.548Z,14.00
2018-05-12T06:21:39.181Z,14.00
2018-05-12T06:27:08.427Z,14.50
2018-05-12T06:29:36.200Z,14.50
2018-05-12T06:32:14.661Z,14.60
2018-05-12T06:34:42.246Z,14.60
2018-05-12T06:37:09.847Z,14.70
2018-05-12T06:39:38.248Z,14.60
2018-05-12T06:42:05.864Z,14.60
2018-05-12T06:44:33.471Z,14.60
2018-05-12T06:47:01.105Z,14.80
2018-05-12T06:49:29.482Z,14.90
2018-05-12T06:51:57.818Z,15.00
2018-05-12T07:00:12.465Z,15.10
2018-05-12T07:02:40.867Z,15.80
2018-05-12T07:05:29.561Z,15.80
2018-05-12T07:07:57.155Z,16.20
2018-05-12T07:10:25.554Z,16.60
2018-05-12T07:12:53.124Z,16.60
2018-05-12T07:15:20.758Z,16.40
2018-05-12T07:17:49.089Z,16.10
2018-05-12T07:20:16.752Z,16.10
2018-05-12T07:22:44.384Z,16.20
2018-05-12T07:25:11.990Z,16.10
2018-05-12T07:27:39.560Z,16.30
2018-05-12T07:30:07.197Z,16.50
2018-05-12T07:32:34.799Z,16.70
2018-05-12T07:35:03.137Z,17.40
2018-05-12T07:37:30.755Z,17.40
2018-05-12T07:39:58.316Z,17.80
2018-05-12T07:42:25.968Z,18.10
2018-05-12T07:44:53.550Z,18.40
2018-05-12T07:47:21.124Z,18.40
2018-05-12T07:50:14.138Z,18.80
2018-05-12T07:52:42.514Z,19.70
2018-05-12T07:55:10.874Z,19.90
2018-05-12T07:57:39.290Z,20.30
2018-05-12T08:00:06.874Z,20.30
2018-05-12T08:02:34.435Z,20.80
2018-05-12T08:05:02.066Z,21.00
2018-05-12T08:07:29.641Z,21.60
2018-05-12T08:09:57.294Z,22.70
2018-05-12T08:12:24.897Z,22.30
2018-05-12T08:14:52.498Z,22.20
2018-05-12T08:17:20.100Z,22.70
2018-05-12T08:19:47.711Z,23.20
2018-05-12T08:22:16.285Z,24.50
2018-05-12T08:24:43.854Z,24.40
2018-05-12T08:27:12.222Z,26.10
2018-05-12T08:29:40.634Z,26.20
2018-05-12T08:32:08.185Z,26.10
2018-05-12T08:34:35.817Z,26.60
2018-05-12T08:37:03.389Z,27.00
2018-05-12T08:39:31.745Z,28.80
2018-05-12T08:41:59.335Z,28.70
2018-05-12T08:44:27.737Z,32.40
2018-05-12T08:46:55.329Z,32.30
2018-05-12T08:49:22.932Z,33.20
2018-05-12T08:51:50.557Z,34.00
2018-05-12T08:54:18.101Z,34.00
2018-05-12T08:56:45.645Z,34.30
2018-05-12T08:59:13.258Z,34.60
2018-05-12T09:01:49.116Z,35.20
2018-05-12T09:04:17.513Z,35.70
2018-05-12T09:06:45.125Z,35.60
2018-05-12T09:09:12.728Z,35.90
2018-05-12T09:11:41.111Z,35.90
2018-05-12T09:14:08.707Z,35.90
2018-05-12T09:16:36.298Z,36.30
2018-05-12T09:19:03.919Z,36.20
2018-05-12T09:21:31.566Z,36.20
2018-05-12T09:23:59.144Z,36.00
2018-05-12T09:26:26.707Z,36.00
2018-05-12T09:28:54.271Z,35.50
2018-05-12T09:31:21.873Z,35.40
2018-05-12T09:33:49.405Z,35.90
2018-05-12T09:36:16.947Z,36.80
2018-05-12T09:38:44.483Z,37.30
2018-05-12T09:41:12.017Z,37.60
2018-05-12T09:43:40.321Z,37.10
2018-05-12T09:46:07.856Z,37.10
2018-05-12T09:48:36.160Z,36.50
2018-05-12T09:51:03.693Z,36.50
2018-05-12T09:53:32.009Z,36.30
2018-05-12T09:55:59.536Z,36.30
2018-05-12T09:58:27.085Z,36.40
2018-05-12T10:03:48.143Z,35.70
2018-05-12T10:06:35.288Z,36.10
2018-05-12T10:09:02.833Z,35.70
2018-05-12T10:11:34.927Z,36.00
2018-05-12T10:14:02.490Z,36.30
2018-05-12T10:16:30.092Z,36.50
2018-05-12T10:18:57.682Z,36.50
2018-05-12T10:21:25.308Z,36.30
2018-05-12T10:23:52.964Z,36.20
2018-05-12T10:26:20.594Z,35.10
2018-05-12T10:28:48.140Z,35.00
2018-05-12T10:31:15.758Z,34.80
2018-05-12T10:33:43.379Z,35.20
2018-05-12T10:36:10.922Z,35.50
2018-05-12T10:38:38.481Z,35.80
2018-05-12T10:41:06.069Z,36.10
2018-05-12T10:43:34.407Z,34.10
2018-05-12T10:49:09.521Z,34.20
2018-05-12T10:51:37.148Z,34.80
2018-05-12T10:54:15.126Z,35.00
2018-05-12T10:56:42.701Z,35.30
2018-05-12T10:59:10.263Z,36.40
2018-05-12T11:01:37.841Z,37.40
2018-05-12T11:04:06.156Z,37.20
2018-05-12T11:06:35.675Z,37.20
2018-05-12T11:09:05.214Z,37.20
2018-05-12T11:11:42.584Z,35.90
2018-05-12T11:14:10.186Z,35.30
2018-05-12T11:16:40.465Z,35.20
2018-05-12T11:19:08.047Z,35.10
2018-05-12T11:21:35.635Z,34.70
2018-05-12T11:24:04.268Z,34.00
2018-05-12T11:26:31.954Z,34.00
2018-05-12T11:28:59.511Z,34.80
2018-05-12T11:31:27.125Z,35.50
2018-05-12T11:33:54.724Z,35.30
2018-05-12T11:36:33.035Z,33.60
2018-05-12T11:39:00.648Z,32.10
2018-05-12T11:41:47.484Z,31.50
2018-05-12T11:44:35.775Z,32.90
2018-05-12T11:47:03.357Z,34.70
2018-05-12T11:49:30.957Z,35.20
2018-05-12T11:51:58.574Z,35.70
2018-05-12T11:54:26.898Z,36.60
2018-05-12T11:56:54.445Z,36.60
2018-05-12T11:59:21.996Z,37.00
2018-05-12T12:01:49.532Z,37.10
2018-05-12T12:04:17.147Z,35.90
2018-05-12T12:06:44.683Z,34.90
2018-05-12T12:09:12.241Z,34.90
2018-05-12T12:14:43.783Z,35.20
2018-05-12T12:17:11.410Z,35.60
2018-05-12T12:19:38.976Z,35.90
2018-05-12T12:22:07.403Z,35.60
2018-05-12T12:24:35.014Z,35.60
2018-05-12T12:27:02.578Z,35.70
2018-05-12T12:29:30.967Z,36.50
2018-05-12T12:31:59.304Z,36.70
2018-05-12T12:34:26.888Z,36.60
2018-05-12T12:36:54.471Z,36.30
2018-05-12T12:39:22.818Z,37.00
2018-05-12T12:41:50.449Z,37.00
2018-05-12T12:44:18.026Z,37.60
2018-05-12T12:46:45.585Z,37.70
2018-05-12T12:49:13.125Z,37.30
2018-05-12T12:51:40.769Z,36.70
2018-05-12T12:54:08.278Z,36.70
2018-05-12T12:56:35.868Z,37.40
2018-05-12T12:59:03.397Z,37.40
2018-05-12T13:01:31.928Z,37.40
2018-05-12T13:06:58.449Z,37.10
2018-05-12T13:09:25.978Z,37.70
2018-05-12T13:11:53.514Z,38.00
2018-05-12T13:14:21.067Z,38.20
2018-05-12T13:16:48.607Z,37.90
2018-05-12T13:19:16.911Z,37.00
2018-05-12T13:21:44.448Z,37.00
2018-05-12T13:24:11.979Z,37.20
2018-05-12T13:32:24.694Z,37.60
2018-05-12T13:34:52.200Z,37.70
2018-05-12T13:43:13.239Z,36.40
2018-05-12T13:45:50.016Z,35.00
2018-05-12T13:48:21.976Z,35.20
2018-05-12T13:51:08.112Z,35.10
2018-05-12T13:53:37.583Z,35.00
2018-05-12T13:56:05.138Z,33.30
2018-05-12T13:58:44.856Z,30.90
2018-05-12T14:01:12.390Z,30.80
2018-05-12T14:03:39.908Z,29.90
2018-05-12T14:06:08.213Z,28.90
2018-05-12T14:08:35.747Z,28.80
2018-05-12T14:11:03.297Z,29.30
2018-05-12T14:13:31.573Z,31.80
2018-05-12T14:16:00.019Z,33.10
2018-05-12T14:18:27.567Z,33.00
2018-05-12T14:20:55.160Z,34.10
2018-05-12T14:23:22.730Z,34.40
2018-05-12T14:25:51.060Z,34.20
2018-05-12T14:28:18.627Z,34.20
2018-05-12T14:30:46.196Z,34.50
2018-05-12T14:33:13.792Z,34.30
2018-05-12T14:35:41.395Z,34.10
2018-05-12T14:38:08.956Z,33.70
2018-05-12T14:40:36.589Z,33.30
2018-05-12T14:43:04.198Z,33.30
2018-05-12T14:45:31.827Z,32.50
2018-05-12T14:47:59.384Z,31.50
2018-05-12T14:50:26.989Z,30.70
2018-05-12T14:52:54.574Z,30.10
2018-05-12T14:55:22.150Z,30.40
2018-05-12T14:57:55.924Z,31.20
2018-05-12T15:00:24.294Z,31.20
2018-05-12T15:02:52.605Z,30.90
2018-05-12T15:05:20.175Z,30.90
2018-05-12T15:07:47.752Z,31.20
2018-05-12T15:10:22.564Z,30.70
2018-05-12T15:22:35.177Z,30.00
2018-05-12T15:25:02.741Z,28.40
2018-05-12T15:27:30.369Z,28.80
2018-05-12T15:29:57.948Z,29.60
2018-05-12T15:32:25.514Z,30.00
2018-05-12T15:34:53.163Z,30.30
2018-05-12T15:37:20.783Z,30.50
2018-05-12T15:39:48.346Z,30.50
2018-05-12T15:42:15.918Z,30.60
2018-05-12T15:44:43.494Z,30.70
2018-05-12T15:47:11.127Z,31.00
2018-05-12T15:49:38.723Z,31.20
2018-05-12T15:52:06.346Z,30.70
2018-05-12T15:54:33.936Z,30.20
2018-05-12T15:57:22.112Z,29.50
2018-05-12T15:59:49.789Z,28.90
2018-05-12T16:02:17.328Z,28.30
2018-05-12T16:05:04.861Z,27.90
2018-05-12T16:07:32.468Z,27.60
2018-05-12T16:10:00.014Z,27.70
2018-05-12T16:12:27.588Z,28.00
2018-05-12T16:14:55.157Z,28.30
2018-05-12T16:17:22.759Z,28.60
2018-05-12T16:19:50.367Z,28.70
2018-05-12T16:22:36.046Z,29.00
2018-05-12T16:25:08.752Z,29.10
2018-05-12T16:27:43.205Z,28.90
2018-05-12T16:30:11.579Z,28.30
2018-05-12T16:32:39.168Z,28.20
2018-05-12T16:35:06.755Z,27.90
2018-05-12T16:37:35.108Z,27.10
2018-05-12T16:40:02.759Z,27.00
2018-05-12T16:42:34.026Z,26.80
2018-05-12T16:45:01.631Z,26.80
2018-05-12T16:47:29.200Z,26.60
2018-05-12T16:50:14.364Z,26.50
2018-05-12T16:52:41.959Z,26.30
2018-05-12T16:55:10.993Z,25.80
2018-05-12T16:57:38.554Z,25.80
2018-05-12T17:00:06.148Z,25.60
2018-05-12T17:02:33.727Z,25.40
2018-05-12T17:05:02.089Z,25.00
2018-05-12T17:07:29.706Z,25.00
2018-05-12T17:09:57.266Z,24.80
2018-05-12T17:12:24.938Z,24.70
2018-05-12T17:14:52.488Z,24.60
2018-05-12T17:17:20.068Z,24.40
2018-05-12T17:19:47.654Z,24.30
2018-05-12T17:22:15.271Z,24.10
2018-05-12T17:24:42.830Z,23.90
2018-05-12T17:27:10.441Z,23.80
2018-05-12T17:29:38.024Z,23.60
2018-05-12T17:32:05.584Z,23.50
2018-05-12T17:34:33.222Z,23.30
2018-05-12T17:37:00.789Z,23.20
2018-05-12T17:39:29.098Z,22.80
2018-05-12T17:41:56.709Z,22.80
2018-05-12T17:44:25.228Z,22.50
2018-05-12T17:46:52.678Z,22.40
2018-05-12T17:49:20.261Z,22.30
2018-05-12T17:51:47.870Z,22.20
2018-05-12T17:54:15.510Z,22.20
2018-05-12T17:56:43.109Z,22.10
2018-05-12T17:59:11.445Z,21.90
2018-05-12T18:01:39.488Z,21.80
2018-05-12T18:04:07.148Z,21.70
2018-05-12T18:06:34.778Z,21.60
2018-05-12T18:09:03.121Z,21.20
2018-05-12T18:11:30.761Z,21.20
2018-05-12T18:13:58.315Z,21.10
2018-05-12T18:16:25.913Z,20.90
2018-05-12T18:18:56.731Z,20.80
2018-05-12T18:21:24.330Z,20.60
2018-05-12T18:24:05.245Z,20.20
2018-05-12T18:26:32.790Z,20.20
2018-05-12T18:29:00.447Z,20.10
2018-05-12T18:31:28.023Z,19.90
2018-05-12T18:33:55.890Z,19.70
2018-05-12T18:36:23.519Z,19.60
2018-05-12T18:38:51.084Z,19.40
2018-05-12T18:41:18.693Z,19.30
2018-05-12T18:43:46.357Z,19.10
2018-05-12T18:46:13.973Z,19.00
2018-05-12T18:48:41.598Z,18.80
2018-05-12T18:51:09.204Z,18.70
2018-05-12T18:53:49.766Z,18.60
2018-05-12T18:56:24.522Z,18.40
2018-05-12T19:01:45.842Z,18.20
2018-05-12T19:04:13.457Z,18.10
2018-05-12T19:06:41.817Z,18.00
2018-05-12T19:09:23.275Z,18.00
2018-05-12T19:11:50.890Z,17.90
2018-05-12T19:14:19.424Z,17.70
2018-05-12T19:16:47.849Z,17.70
2018-05-12T19:19:16.198Z,17.60
2018-05-12T19:21:44.851Z,17.50
2018-05-12T19:24:12.457Z,17.50
2018-05-12T19:32:32.959Z,17.60
2018-05-12T19:35:00.588Z,17.60
2018-05-12T19:37:28.201Z,17.60
2018-05-12T19:43:07.678Z,17.70
2018-05-12T19:45:36.119Z,17.60
2018-05-12T19:48:21.000Z,17.60
2018-05-12T19:50:48.568Z,17.70
2018-05-12T19:53:16.186Z,17.60
2018-05-12T19:55:43.760Z,17.60
2018-05-12T19:58:11.354Z,17.60
2018-05-12T20:00:38.966Z,17.60
2018-05-12T20:03:07.485Z,17.50
2018-05-12T20:05:35.091Z,17.40
2018-05-12T20:08:02.657Z,17.40
2018-05-12T20:10:30.272Z,17.30
2018-05-12T20:12:59.023Z,17.30
2018-05-12T20:15:26.600Z,17.20
2018-05-12T20:17:55.738Z,17.20
2018-05-12T20:20:23.300Z,17.30
2018-05-12T20:22:51.710Z,17.40
2018-05-12T20:25:19.326Z,17.40
2018-05-12T20:27:47.711Z,17.60
2018-05-12T20:30:24.143Z,17.60
2018-05-12T20:32:51.739Z,17.60
2018-05-12T20:35:20.061Z,17.80
2018-05-12T20:37:47.642Z,17.80
2018-05-12T20:40:15.202Z,17.80
2018-05-12T20:42:42.781Z,18.00
2018-05-12T20:45:10.358Z,18.10
2018-05-12T20:47:38.714Z,18.10
2018-05-12T20:50:06.338Z,18.10
2018-05-12T20:52:33.892Z,18.10
2018-05-12T20:55:01.449Z,18.10
2018-05-12T20:57:29.059Z,18.00
2018-05-12T20:59:57.418Z,17.90
2018-05-12T21:02:25.064Z,17.90
2018-05-12T21:04:52.677Z,17.90
2018-05-12T21:07:20.275Z,17.90
2018-05-12T21:09:47.902Z,17.90
2018-05-12T21:12:15.465Z,18.00
2018-05-12T21:14:43.088Z,18.00
2018-05-12T21:17:10.639Z,18.00
2018-05-12T21:19:38.249Z,18.00
2018-05-12T21:22:05.789Z,18.00
2018-05-12T21:24:34.106Z,17.90
2018-05-12T21:27:01.768Z,17.90
2018-05-12T21:29:29.358Z,17.80
2018-05-12T21:31:57.009Z,17.80
2018-05-12T21:34:24.613Z,17.70
2018-05-12T21:36:52.965Z,17.70
2018-05-12T21:39:20.606Z,17.70
2018-05-12T21:41:48.176Z,17.70
2018-05-12T21:44:15.763Z,17.60
2018-05-12T21:46:44.095Z,17.30
2018-05-12T21:49:11.731Z,17.30
2018-05-12T21:51:39.335Z,17.10
2018-05-12T21:54:06.921Z,17.00
2018-05-12T21:56:35.301Z,16.80
2018-05-12T21:59:03.753Z,16.70
2018-05-12T22:01:31.317Z,16.60
2018-05-12T22:03:58.883Z,16.50
2018-05-12T22:06:26.468Z,16.50
2018-05-12T22:08:54.825Z,16.30
2018-05-12T22:11:22.416Z,16.30
2018-05-12T22:13:49.983Z,16.20
2018-05-12T22:16:17.605Z,16.10
2018-05-12T22:18:45.182Z,16.00
2018-05-12T22:21:13.523Z,15.80
2018-05-12T22:23:41.101Z,15.80
2018-05-12T22:26:08.703Z,15.70
2018-05-12T22:28:36.321Z,15.60
2018-05-12T22:31:03.930Z,15.40
2018-05-12T22:33:31.461Z,15.40
2018-05-12T22:35:59.836Z,15.40
2018-05-12T22:38:28.188Z,15.40
2018-05-12T22:40:55.798Z,15.40
2018-05-12T22:43:23.407Z,15.40
2018-05-12T22:45:51.030Z,15.40
2018-05-12T22:48:18.587Z,15.30
2018-05-12T22:50:46.183Z,15.30
2018-05-12T22:53:13.740Z,15.20
2018-05-12T22:55:41.345Z,15.20
2018-05-12T22:58:08.980Z,15.10
2018-05-12T23:00:36.583Z,15.10
2018-05-12T23:03:04.235Z,14.90
2018-05-12T23:05:31.836Z,14.80
2018-05-12T23:07:59.413Z,14.90
2018-05-12T23:10:26.965Z,14.80
2018-05-12T23:12:54.522Z,14.70
2018-05-12T23:15:22.078Z,14.70
2018-05-12T23:17:49.688Z,14.70
2018-05-12T23:20:17.270Z,14.60
2018-05-12T23:22:47.747Z,14.60
2018-05-12T23:25:15.340Z,14.50
2018-05-12T23:27:42.933Z,14.50
2018-05-12T23:30:10.504Z,14.50
2018-05-12T23:32:38.121Z,14.50
2018-05-12T23:35:05.685Z,14.50
2018-05-12T23:37:33.827Z,14.50
2018-05-12T23:40:02.226Z,14.50
2018-05-12T23:42:29.825Z,14.50
2018-05-12T23:44:57.449Z,14.40
2018-05-12T23:47:24.996Z,14.30
2018-05-12T23:49:53.367Z,14.00
2018-05-12T23:52:21.727Z,13.90
2018-05-12T23:54:49.289Z,13.90
2018-05-12T23:57:16.938Z,13.80
2018-05-12T23:59:44.553Z,13.80
